createdAt,value
2022-08-30T00:00:30.655Z,18.70
2022-08-30T00:03:01.098Z,18.70
2022-08-30T00:05:30.685Z,18.70
2022-08-30T00:08:00.244Z,18.60
2022-08-30T00:10:29.809Z,18.60
2022-08-30T00:13:00.250Z,18.50
2022-08-30T00:15:30.292Z,18.50
2022-08-30T00:17:59.909Z,18.50
2022-08-30T00:20:30.220Z,18.40
2022-08-30T00:22:58.817Z,18.40
2022-08-30T00:25:27.597Z,18.40
2022-08-30T00:27:55.841Z,18.40
2022-08-30T00:30:24.454Z,18.30
2022-08-30T00:32:54.105Z,18.30
2022-08-30T00:35:24.413Z,18.30
2022-08-30T00:37:52.699Z,18.30
2022-08-30T00:40:27.203Z,18.30
2022-08-30T00:42:59.664Z,18.30
2022-08-30T00:45:31.627Z,18.30
2022-08-30T00:47:59.980Z,18.20
2022-08-30T00:50:35.389Z,18.20
2022-08-30T00:53:06.796Z,18.20
2022-08-30T00:55:35.651Z,18.30
2022-08-30T00:58:09.686Z,18.30
2022-08-30T01:00:38.118Z,18.30
2022-08-30T01:03:09.431Z,18.30
2022-08-30T01:05:40.629Z,18.30
2022-08-30T01:08:08.816Z,18.30
2022-08-30T01:10:38.151Z,18.30
2022-08-30T01:13:06.843Z,18.30
2022-08-30T01:15:35.650Z,18.30
2022-08-30T01:18:05.623Z,18.20
2022-08-30T01:20:44.689Z,18.30
2022-08-30T01:23:16.846Z,18.20
2022-08-30T01:25:48.415Z,18.30
2022-08-30T01:28:21.254Z,18.30
2022-08-30T01:30:49.834Z,18.30
2022-08-30T01:33:20.071Z,18.20
2022-08-30T01:35:53.343Z,18.20
2022-08-30T01:38:25.895Z,18.20
2022-08-30T01:40:59.533Z,18.30
2022-08-30T01:43:28.957Z,18.20
2022-08-30T01:45:57.235Z,18.20
2022-08-30T01:48:30.854Z,18.20
2022-08-30T01:51:00.020Z,18.20
2022-08-30T01:53:30.038Z,18.20
2022-08-30T01:55:58.394Z,18.20
2022-08-30T01:58:26.644Z,18.10
2022-08-30T02:00:54.859Z,18.10
2022-08-30T02:03:23.152Z,18.10
2022-08-30T02:05:51.387Z,18.10
2022-08-30T02:08:27.332Z,18.10
2022-08-30T02:11:00.007Z,18.10
2022-08-30T02:13:28.832Z,18.10
2022-08-30T02:15:57.393Z,18.10
2022-08-30T02:18:26.953Z,18.10
2022-08-30T02:20:55.233Z,18.10
2022-08-30T02:23:23.317Z,18.10
2022-08-30T02:25:51.507Z,18.10
2022-08-30T02:28:21.191Z,18.10
2022-08-30T02:30:49.983Z,18.10
2022-08-30T02:33:18.244Z,18.10
2022-08-30T02:35:46.776Z,18.00
2022-08-30T02:38:15.299Z,18.00
2022-08-30T02:40:47.992Z,18.00
2022-08-30T02:43:16.623Z,17.90
2022-08-30T02:45:46.233Z,17.90
2022-08-30T02:48:14.330Z,17.90
2022-08-30T02:50:43.489Z,17.90
2022-08-30T02:53:16.105Z,17.80
2022-08-30T02:55:44.579Z,17.80
2022-08-30T02:58:12.870Z,17.80
2022-08-30T03:00:42.497Z,17.90
2022-08-30T03:03:11.941Z,17.80
2022-08-30T03:05:40.350Z,17.80
2022-08-30T03:08:10.879Z,17.80
2022-08-30T03:10:39.221Z,17.80
2022-08-30T03:13:07.841Z,17.80
2022-08-30T03:15:36.609Z,17.70
2022-08-30T03:18:05.014Z,17.70
2022-08-30T03:20:35.151Z,17.70
2022-08-30T03:23:03.264Z,17.70
2022-08-30T03:25:31.430Z,17.70
2022-08-30T03:27:59.495Z,17.70
2022-08-30T03:30:28.177Z,17.70
2022-08-30T03:32:56.286Z,17.70
2022-08-30T03:35:24.486Z,17.70
2022-08-30T03:37:55.826Z,17.70
2022-08-30T03:40:24.455Z,17.70
2022-08-30T03:42:54.218Z,17.70
2022-08-30T03:45:22.764Z,17.70
2022-08-30T03:47:50.857Z,17.70
2022-08-30T03:50:19.146Z,17.70
2022-08-30T03:52:47.225Z,17.70
2022-08-30T03:55:16.707Z,17.70
2022-08-30T03:57:44.753Z,17.70
2022-08-30T04:00:14.167Z,17.70
2022-08-30T04:02:42.790Z,17.70
2022-08-30T04:05:11.717Z,17.70
2022-08-30T04:07:42.213Z,17.70
2022-08-30T04:10:11.678Z,17.70
2022-08-30T04:12:48.926Z,17.70
2022-08-30T04:15:19.030Z,17.70
2022-08-30T04:17:48.014Z,17.70
2022-08-30T04:20:16.512Z,17.60
2022-08-30T04:22:44.625Z,17.60
2022-08-30T04:25:15.515Z,17.60
2022-08-30T04:27:46.491Z,17.60
2022-08-30T04:30:19.947Z,17.60
2022-08-30T04:32:48.057Z,17.60
2022-08-30T04:35:16.301Z,17.60
2022-08-30T04:37:44.433Z,17.60
2022-08-30T04:40:14.211Z,17.60
2022-08-30T04:42:44.009Z,17.60
2022-08-30T04:45:15.950Z,17.60
2022-08-30T04:47:44.786Z,17.60
2022-08-30T04:50:16.242Z,17.60
2022-08-30T04:52:45.252Z,17.60
2022-08-30T04:55:16.843Z,17.70
2022-08-30T04:57:48.210Z,17.70
2022-08-30T05:00:20.473Z,17.70
2022-08-30T05:02:48.798Z,17.70
2022-08-30T05:05:34.788Z,17.70
2022-08-30T05:08:03.388Z,17.80
2022-08-30T05:10:31.617Z,17.70
2022-08-30T05:12:59.711Z,17.80
2022-08-30T05:15:29.232Z,17.90
2022-08-30T05:17:57.482Z,17.90
2022-08-30T05:20:25.752Z,17.90
2022-08-30T05:22:54.516Z,18.00
2022-08-30T05:25:27.422Z,18.10
2022-08-30T05:27:56.365Z,18.20
2022-08-30T05:30:26.121Z,18.20
2022-08-30T05:32:56.275Z,18.30
2022-08-30T05:35:25.919Z,18.40
2022-08-30T05:37:54.491Z,18.50
2022-08-30T05:40:23.463Z,18.60
2022-08-30T05:42:51.825Z,18.60
2022-08-30T05:45:20.095Z,18.70
2022-08-30T05:47:48.719Z,18.80
2022-08-30T05:50:18.152Z,18.90
2022-08-30T05:52:46.238Z,18.90
2022-08-30T05:55:14.536Z,19.10
2022-08-30T05:57:43.097Z,19.20
2022-08-30T06:00:14.221Z,19.30
2022-08-30T06:02:43.298Z,19.30
2022-08-30T06:05:14.165Z,19.40
2022-08-30T06:07:44.469Z,19.50
2022-08-30T06:10:13.412Z,19.50
2022-08-30T06:12:43.254Z,19.70
2022-08-30T06:15:12.564Z,19.70
2022-08-30T06:17:40.804Z,20.00
2022-08-30T06:20:10.180Z,20.10
2022-08-30T06:22:38.806Z,20.20
2022-08-30T06:25:09.619Z,20.20
2022-08-30T06:27:37.822Z,20.40
2022-08-30T06:30:08.318Z,20.50
2022-08-30T06:32:36.505Z,20.40
2022-08-30T06:35:05.111Z,20.50
2022-08-30T06:37:34.060Z,20.50
2022-08-30T06:40:03.415Z,20.60
2022-08-30T06:42:34.473Z,20.60
2022-08-30T06:45:10.655Z,20.70
2022-08-30T06:47:39.980Z,20.80
2022-08-30T06:50:11.878Z,20.90
2022-08-30T06:52:40.598Z,20.90
2022-08-30T06:55:09.503Z,21.00
2022-08-30T06:57:40.101Z,21.00
2022-08-30T07:00:10.669Z,21.10
2022-08-30T07:02:39.369Z,21.20
2022-08-30T07:05:09.737Z,21.20
2022-08-30T07:07:37.885Z,21.30
2022-08-30T07:10:07.737Z,21.50
2022-08-30T07:12:35.998Z,21.60
2022-08-30T07:15:07.902Z,21.60
2022-08-30T07:17:53.839Z,21.60
2022-08-30T07:20:22.333Z,21.60
2022-08-30T07:22:50.484Z,21.70
2022-08-30T07:25:20.078Z,21.80
2022-08-30T07:27:48.233Z,21.90
2022-08-30T07:30:17.657Z,21.90
2022-08-30T07:32:45.813Z,21.90
2022-08-30T07:35:13.965Z,21.80
2022-08-30T07:37:42.450Z,22.00
2022-08-30T07:40:12.111Z,22.00
2022-08-30T07:42:41.071Z,22.10
2022-08-30T07:45:10.588Z,22.20
2022-08-30T07:47:40.351Z,22.30
2022-08-30T07:50:09.641Z,22.40
2022-08-30T07:55:07.403Z,22.50
2022-08-30T07:57:35.507Z,22.50
2022-08-30T08:00:05.401Z,22.50
2022-08-30T08:02:34.090Z,22.50
2022-08-30T08:05:05.547Z,22.70
2022-08-30T08:07:33.672Z,22.80
2022-08-30T08:10:01.897Z,22.90
2022-08-30T08:12:30.386Z,22.90
2022-08-30T08:14:58.440Z,23.10
2022-08-30T08:17:26.516Z,23.30
2022-08-30T08:19:54.746Z,23.40
2022-08-30T08:22:24.250Z,23.60
2022-08-30T08:24:52.332Z,23.60
2022-08-30T08:27:20.551Z,23.70
2022-08-30T08:29:48.645Z,23.90
2022-08-30T08:32:16.712Z,23.80
2022-08-30T08:34:44.814Z,23.80
2022-08-30T08:37:12.985Z,23.80
2022-08-30T08:39:42.434Z,23.80
2022-08-30T08:42:17.084Z,23.80
2022-08-30T08:44:54.686Z,23.80
2022-08-30T08:47:27.591Z,24.00
2022-08-30T08:49:59.356Z,24.20
2022-08-30T08:52:49.267Z,24.30
2022-08-30T08:55:22.214Z,24.30
2022-08-30T08:57:52.492Z,24.40
2022-08-30T09:00:21.128Z,24.50
2022-08-30T09:02:55.975Z,24.40
2022-08-30T09:05:27.057Z,24.40
2022-08-30T09:07:59.738Z,24.50
2022-08-30T09:10:49.215Z,24.60
2022-08-30T09:13:19.075Z,24.60
2022-08-30T09:15:52.348Z,24.70
2022-08-30T09:18:40.601Z,24.90
2022-08-30T09:21:11.950Z,24.90
2022-08-30T09:23:49.733Z,25.00
2022-08-30T09:26:30.109Z,25.10
2022-08-30T09:28:59.258Z,25.20
2022-08-30T09:31:30.525Z,25.20
2022-08-30T09:34:03.389Z,25.20
2022-08-30T09:36:45.067Z,25.30
2022-08-30T09:39:18.973Z,25.50
2022-08-30T09:41:50.708Z,25.70
2022-08-30T09:44:22.048Z,26.10
2022-08-30T09:46:52.298Z,26.20
2022-08-30T09:49:34.267Z,26.30
2022-08-30T09:52:18.874Z,26.50
2022-08-30T09:55:02.619Z,26.70
2022-08-30T09:57:40.856Z,26.80
2022-08-30T10:00:15.355Z,26.80
2022-08-30T10:02:56.372Z,27.10
2022-08-30T10:05:31.994Z,27.30
2022-08-30T10:08:09.944Z,27.60
2022-08-30T10:10:48.117Z,27.80
2022-08-30T10:13:54.371Z,28.10
2022-08-30T10:16:34.580Z,28.40
2022-08-30T10:19:15.449Z,28.70
2022-08-30T10:21:47.960Z,28.70
2022-08-30T10:24:22.583Z,28.70
2022-08-30T10:26:55.329Z,28.70
2022-08-30T10:29:30.702Z,28.80
2022-08-30T10:32:04.779Z,28.90
2022-08-30T10:34:36.650Z,29.10
2022-08-30T10:37:08.517Z,28.90
2022-08-30T10:39:43.270Z,28.80
2022-08-30T10:42:20.981Z,28.70
2022-08-30T10:44:54.276Z,28.50
2022-08-30T10:47:29.765Z,28.60
2022-08-30T10:50:07.482Z,28.60
2022-08-30T10:52:40.462Z,28.40
2022-08-30T10:55:14.816Z,27.70
2022-08-30T10:57:45.303Z,27.50
2022-08-30T11:00:23.651Z,27.30
2022-08-30T11:03:53.193Z,27.40
2022-08-30T11:06:26.377Z,27.40
2022-08-30T11:09:13.029Z,27.60
2022-08-30T11:11:56.955Z,28.00
2022-08-30T11:14:26.039Z,28.10
2022-08-30T11:16:57.764Z,28.50
2022-08-30T11:19:33.037Z,28.70
2022-08-30T11:22:14.222Z,29.20
2022-08-30T11:25:01.731Z,29.80
2022-08-30T11:27:45.322Z,30.20
2022-08-30T11:30:50.901Z,30.30
2022-08-30T11:33:46.068Z,30.30
2022-08-30T11:37:04.210Z,30.60
2022-08-30T11:39:53.701Z,31.10
2022-08-30T11:42:44.825Z,31.00
2022-08-30T11:45:52.250Z,31.20
2022-08-30T11:48:53.847Z,31.40
2022-08-30T11:52:08.569Z,31.60
2022-08-30T11:54:53.183Z,31.30
2022-08-30T11:57:34.677Z,30.70
2022-08-30T12:00:09.571Z,30.00
2022-08-30T12:02:51.171Z,29.80
2022-08-30T12:05:51.649Z,29.90
2022-08-30T12:08:44.890Z,30.20
2022-08-30T12:12:04.086Z,29.70
2022-08-30T12:14:47.562Z,29.70
2022-08-30T12:17:42.957Z,29.80
2022-08-30T12:20:20.232Z,30.20
2022-08-30T12:22:51.832Z,30.70
2022-08-30T12:25:27.096Z,30.90
2022-08-30T12:28:11.610Z,30.70
2022-08-30T12:30:40.246Z,30.50
2022-08-30T12:33:12.210Z,30.60
2022-08-30T12:35:41.838Z,30.80
2022-08-30T12:38:19.616Z,31.20
2022-08-30T12:40:58.722Z,31.20
2022-08-30T12:43:40.330Z,31.60
2022-08-30T12:46:15.112Z,31.80
2022-08-30T12:48:44.313Z,31.70
2022-08-30T12:51:31.518Z,31.30
2022-08-30T12:54:19.121Z,31.00
2022-08-30T12:56:53.936Z,30.60
2022-08-30T12:59:42.054Z,30.60
2022-08-30T13:02:20.314Z,31.40
2022-08-30T13:04:51.376Z,31.40
2022-08-30T13:07:32.775Z,31.20
2022-08-30T13:10:19.867Z,30.70
2022-08-30T13:13:02.758Z,30.50
2022-08-30T13:15:33.675Z,30.50
2022-08-30T13:18:27.627Z,30.50
2022-08-30T13:21:12.671Z,30.90
2022-08-30T13:23:40.811Z,31.10
2022-08-30T13:26:11.420Z,31.30
2022-08-30T13:28:48.863Z,32.00
2022-08-30T13:31:17.267Z,32.60
2022-08-30T13:33:46.694Z,33.10
2022-08-30T13:36:15.505Z,32.90
2022-08-30T13:38:43.724Z,32.70
2022-08-30T13:41:13.244Z,32.70
2022-08-30T13:46:29.529Z,32.70
2022-08-30T13:49:04.253Z,32.30
2022-08-30T13:51:32.521Z,31.70
2022-08-30T13:54:01.129Z,31.80
2022-08-30T13:56:32.751Z,31.60
2022-08-30T13:59:03.645Z,32.00
2022-08-30T14:02:07.522Z,32.40
2022-08-30T14:04:22.805Z,32.60
2022-08-30T14:09:39.429Z,32.20
2022-08-30T14:12:09.836Z,32.50
2022-08-30T14:14:43.227Z,32.90
2022-08-30T14:17:12.544Z,33.40
2022-08-30T14:19:40.942Z,34.10
2022-08-30T14:22:09.048Z,34.70
2022-08-30T14:24:37.081Z,34.90
2022-08-30T14:27:05.176Z,34.90
2022-08-30T14:29:34.746Z,34.50
2022-08-30T14:32:03.718Z,34.10
2022-08-30T14:34:31.765Z,34.00
2022-08-30T14:37:00.928Z,33.70
2022-08-30T14:39:29.057Z,33.30
2022-08-30T14:41:57.240Z,33.30
2022-08-30T14:44:26.625Z,33.20
2022-08-30T14:46:56.986Z,33.50
2022-08-30T14:49:25.719Z,33.90
2022-08-30T14:51:55.294Z,33.70
2022-08-30T14:54:26.037Z,33.70
2022-08-30T14:56:54.858Z,33.30
2022-08-30T14:59:23.491Z,32.90
2022-08-30T15:01:51.656Z,32.70
2022-08-30T15:04:21.485Z,32.70
2022-08-30T15:06:50.221Z,33.00
2022-08-30T15:09:23.116Z,33.30
2022-08-30T15:11:53.097Z,33.50
2022-08-30T15:14:23.121Z,33.30
2022-08-30T15:16:51.474Z,32.70
2022-08-30T15:19:21.255Z,32.30
2022-08-30T15:21:49.884Z,31.90
2022-08-30T15:24:20.624Z,31.70
2022-08-30T15:26:55.703Z,31.60
2022-08-30T15:29:24.556Z,31.50
2022-08-30T15:31:53.015Z,31.30
2022-08-30T15:34:28.133Z,31.10
2022-08-30T15:36:57.172Z,31.10
2022-08-30T15:39:25.969Z,31.10
2022-08-30T15:42:00.318Z,31.00
2022-08-30T15:44:29.648Z,30.80
2022-08-30T15:46:57.905Z,30.70
2022-08-30T15:49:27.442Z,30.60
2022-08-30T15:51:55.475Z,30.60
2022-08-30T15:54:24.794Z,30.60
2022-08-30T15:56:59.392Z,30.60
2022-08-30T15:59:28.179Z,30.50
2022-08-30T16:01:57.172Z,30.50
2022-08-30T16:04:26.932Z,30.50
2022-08-30T16:06:55.445Z,30.40
2022-08-30T16:09:25.015Z,30.20
2022-08-30T16:11:53.155Z,30.00
2022-08-30T16:14:21.314Z,29.90
2022-08-30T16:16:50.041Z,29.90
2022-08-30T16:19:18.219Z,29.80
2022-08-30T16:21:47.843Z,29.90
2022-08-30T16:24:18.236Z,29.90
2022-08-30T16:26:51.033Z,29.60
2022-08-30T16:29:19.141Z,29.40
2022-08-30T16:31:48.446Z,29.20
2022-08-30T16:34:18.622Z,29.00
2022-08-30T16:36:48.436Z,28.90
2022-08-30T16:39:16.905Z,28.90
2022-08-30T16:41:46.584Z,28.90
2022-08-30T16:44:16.042Z,29.00
2022-08-30T16:46:53.269Z,29.30
2022-08-30T16:49:22.791Z,29.50
2022-08-30T16:51:52.939Z,29.60
2022-08-30T16:54:21.601Z,29.60
2022-08-30T16:56:49.903Z,29.40
2022-08-30T16:59:18.967Z,29.20
2022-08-30T17:01:48.745Z,29.10
2022-08-30T17:04:19.408Z,28.90
2022-08-30T17:06:48.305Z,28.90
2022-08-30T17:09:19.760Z,28.80
2022-08-30T17:11:48.575Z,28.80
2022-08-30T17:14:22.919Z,28.80
2022-08-30T17:16:56.476Z,28.80
2022-08-30T17:19:26.767Z,28.80
2022-08-30T17:24:47.188Z,28.70
2022-08-30T17:27:17.157Z,28.60
2022-08-30T17:29:45.269Z,28.60
2022-08-30T17:32:13.598Z,28.60
2022-08-30T17:34:42.474Z,28.50
2022-08-30T17:37:10.873Z,28.50
2022-08-30T17:39:39.260Z,28.50
2022-08-30T17:42:09.569Z,28.50
2022-08-30T17:44:42.133Z,28.50
2022-08-30T17:47:10.522Z,28.40
2022-08-30T17:49:39.309Z,28.20
2022-08-30T17:52:07.959Z,27.90
2022-08-30T17:54:39.933Z,27.70
2022-08-30T17:57:11.550Z,27.50
2022-08-30T17:59:41.059Z,27.40
2022-08-30T18:02:11.065Z,27.20
2022-08-30T18:04:39.726Z,27.10
2022-08-30T18:07:11.911Z,27.00
2022-08-30T18:09:41.177Z,26.80
2022-08-30T18:12:11.443Z,26.70
2022-08-30T18:14:39.840Z,26.50
2022-08-30T18:17:09.088Z,26.40
2022-08-30T18:19:46.335Z,26.20
2022-08-30T18:22:15.138Z,26.00
2022-08-30T18:24:43.275Z,26.00
2022-08-30T18:27:13.403Z,25.90
2022-08-30T18:29:41.923Z,25.70
2022-08-30T18:32:11.204Z,25.70
2022-08-30T18:34:40.415Z,25.60
2022-08-30T18:37:11.479Z,25.50
2022-08-30T18:39:41.245Z,25.40
2022-08-30T18:42:09.719Z,25.30
2022-08-30T18:44:40.173Z,25.20
2022-08-30T18:47:11.773Z,25.10
2022-08-30T18:49:39.854Z,25.00
2022-08-30T18:52:09.871Z,24.90
2022-08-30T18:54:40.298Z,24.80
2022-08-30T18:57:09.925Z,24.70
2022-08-30T18:59:41.804Z,24.60
2022-08-30T19:02:12.599Z,24.60
2022-08-30T19:04:43.110Z,24.50
2022-08-30T19:07:13.473Z,24.40
2022-08-30T19:09:43.635Z,24.20
2022-08-30T19:12:13.579Z,24.20
2022-08-30T19:14:43.145Z,24.10
2022-08-30T19:17:11.581Z,24.10
2022-08-30T19:19:48.295Z,24.00
2022-08-30T19:22:18.014Z,24.00
2022-08-30T19:24:47.540Z,24.00
2022-08-30T19:27:16.153Z,23.90
2022-08-30T19:29:45.623Z,23.80
2022-08-30T19:32:21.399Z,23.80
2022-08-30T19:34:49.809Z,23.70
2022-08-30T19:37:18.768Z,23.70
2022-08-30T19:39:47.780Z,23.60
2022-08-30T19:42:16.908Z,23.50
2022-08-30T19:44:46.713Z,23.50
2022-08-30T19:47:14.836Z,23.40
2022-08-30T19:49:43.624Z,23.30
2022-08-30T19:52:11.920Z,23.30
2022-08-30T19:54:41.342Z,23.20
2022-08-30T19:57:10.547Z,23.10
2022-08-30T19:59:38.755Z,23.10
2022-08-30T20:02:08.929Z,23.10
2022-08-30T20:04:38.149Z,23.10
2022-08-30T20:07:09.215Z,23.10
2022-08-30T20:09:37.298Z,23.10
2022-08-30T20:12:06.340Z,23.00
2022-08-30T20:14:35.075Z,22.90
2022-08-30T20:17:03.229Z,22.90
2022-08-30T20:19:33.637Z,22.80
2022-08-30T20:22:05.569Z,22.80
2022-08-30T20:24:24.158Z,28.70
2022-08-30T20:27:04.821Z,22.80
2022-08-30T20:29:34.436Z,22.70
2022-08-30T20:32:03.309Z,22.70
2022-08-30T20:34:33.728Z,22.60
2022-08-30T20:37:01.852Z,22.60
2022-08-30T20:39:30.054Z,22.60
2022-08-30T20:41:58.374Z,22.50
2022-08-30T20:44:26.511Z,22.40
2022-08-30T20:46:54.897Z,22.40
2022-08-30T20:49:23.061Z,22.40
2022-08-30T20:51:54.120Z,22.40
2022-08-30T20:54:22.880Z,22.40
2022-08-30T20:56:51.517Z,22.30
2022-08-30T20:59:20.978Z,22.30
2022-08-30T21:01:49.928Z,22.30
2022-08-30T21:04:18.846Z,22.20
2022-08-30T21:06:47.105Z,22.20
2022-08-30T21:09:16.662Z,22.20
2022-08-30T21:11:45.362Z,22.10
2022-08-30T21:14:13.887Z,22.10
2022-08-30T21:16:42.202Z,22.00
2022-08-30T21:19:10.351Z,22.00
2022-08-30T21:21:38.513Z,22.00
2022-08-30T21:24:10.032Z,22.00
2022-08-30T21:26:40.855Z,22.00
2022-08-30T21:29:09.247Z,22.00
2022-08-30T21:31:39.024Z,21.90
2022-08-30T21:34:07.740Z,21.90
2022-08-30T21:36:47.972Z,21.90
2022-08-30T21:39:20.257Z,21.90
2022-08-30T21:41:50.602Z,21.80
2022-08-30T21:44:20.618Z,21.80
2022-08-30T21:46:50.079Z,21.80
2022-08-30T21:49:20.372Z,21.70
2022-08-30T21:51:50.428Z,21.70
2022-08-30T21:54:19.493Z,21.70
2022-08-30T21:56:51.468Z,21.80
2022-08-30T21:59:20.688Z,21.70
2022-08-30T22:01:50.132Z,21.60
2022-08-30T22:04:20.991Z,21.60
2022-08-30T22:06:53.876Z,21.60
2022-08-30T22:09:24.369Z,21.50
2022-08-30T22:11:53.908Z,21.50
2022-08-30T22:14:22.958Z,21.50
2022-08-30T22:16:51.207Z,21.50
2022-08-30T22:19:23.158Z,21.40
2022-08-30T22:21:52.299Z,21.40
2022-08-30T22:24:23.587Z,21.40
2022-08-30T22:26:53.072Z,21.40
2022-08-30T22:29:21.232Z,21.40
2022-08-30T22:31:49.564Z,21.40
2022-08-30T22:34:17.796Z,21.30
2022-08-30T22:36:45.903Z,21.30
2022-08-30T22:39:14.165Z,21.30
2022-08-30T22:41:44.271Z,21.30
2022-08-30T22:44:14.458Z,21.30
2022-08-30T22:46:43.579Z,21.10
2022-08-30T22:49:12.941Z,21.20
2022-08-30T22:51:41.978Z,21.10
2022-08-30T22:54:10.954Z,21.10
2022-08-30T22:56:39.978Z,21.00
2022-08-30T22:59:08.856Z,21.10
2022-08-30T23:01:40.847Z,21.10
2022-08-30T23:04:10.066Z,21.00
2022-08-30T23:06:38.304Z,21.00
2022-08-30T23:09:07.499Z,21.00
2022-08-30T23:11:35.753Z,20.90
2022-08-30T23:14:04.715Z,21.00
2022-08-30T23:16:34.123Z,21.00
2022-08-30T23:19:04.898Z,21.00
2022-08-30T23:21:33.400Z,20.90
2022-08-30T23:24:19.067Z,20.90
2022-08-30T23:27:05.962Z,20.90
2022-08-30T23:29:52.001Z,20.80
2022-08-30T23:32:38.632Z,20.80
2022-08-30T23:35:29.335Z,20.80
2022-08-30T23:38:15.683Z,20.70
2022-08-30T23:41:01.546Z,20.70
2022-08-30T23:43:47.060Z,20.70
2022-08-30T23:46:32.743Z,20.70
2022-08-30T23:49:18.397Z,20.70
2022-08-30T23:52:05.171Z,20.70
2022-08-30T23:54:50.950Z,20.60
2022-08-30T23:57:36.729Z,20.60
